sensor_id;sensor_type;location;lat;lon;timestamp;temperature;humidity
54578;DHT22;40474;49.330;8.130;2022-08-01T00:00:00;24.60;61.50
54578;DHT22;40474;49.330;8.130;2022-08-01T00:02:29;24.60;61.80
54578;DHT22;40474;49.330;8.130;2022-08-01T00:04:57;24.60;61.70
54578;DHT22;40474;49.330;8.130;2022-08-01T00:07:25;24.60;62.10
54578;DHT22;40474;49.330;8.130;2022-08-01T00:09:55;24.60;62.70
54578;DHT22;40474;49.330;8.130;2022-08-01T00:12:24;24.50;62.70
54578;DHT22;40474;49.330;8.130;2022-08-01T00:14:50;24.50;62.60
54578;DHT22;40474;49.330;8.130;2022-08-01T00:17:18;24.50;62.90
54578;DHT22;40474;49.330;8.130;2022-08-01T00:19:44;24.50;61.80
54578;DHT22;40474;49.330;8.130;2022-08-01T00:22:11;24.40;63.30
54578;DHT22;40474;49.330;8.130;2022-08-01T00:24:38;24.50;63.30
54578;DHT22;40474;49.330;8.130;2022-08-01T00:27:05;24.50;63.60
54578;DHT22;40474;49.330;8.130;2022-08-01T00:29:31;24.50;63.50
54578;DHT22;40474;49.330;8.130;2022-08-01T00:32:18;24.40;63.70
54578;DHT22;40474;49.330;8.130;2022-08-01T00:34:48;24.40;63.60
54578;DHT22;40474;49.330;8.130;2022-08-01T00:37:16;24.30;64.40
54578;DHT22;40474;49.330;8.130;2022-08-01T00:39:43;24.20;65.10
54578;DHT22;40474;49.330;8.130;2022-08-01T00:42:10;24.20;65.00
54578;DHT22;40474;49.330;8.130;2022-08-01T00:44:38;24.20;64.00
54578;DHT22;40474;49.330;8.130;2022-08-01T00:47:04;24.20;65.20
54578;DHT22;40474;49.330;8.130;2022-08-01T00:49:33;24.10;66.20
54578;DHT22;40474;49.330;8.130;2022-08-01T00:52:00;24.10;65.80
54578;DHT22;40474;49.330;8.130;2022-08-01T00:54:27;24.10;66.10
54578;DHT22;40474;49.330;8.130;2022-08-01T00:56:54;24.10;66.40
54578;DHT22;40474;49.330;8.130;2022-08-01T00:59:21;24.10;67.00
54578;DHT22;40474;49.330;8.130;2022-08-01T01:01:48;24.10;66.20
54578;DHT22;40474;49.330;8.130;2022-08-01T01:04:16;24.00;67.00
54578;DHT22;40474;49.330;8.130;2022-08-01T01:12:24;23.90;67.50
54578;DHT22;40474;49.330;8.130;2022-08-01T01:15:07;23.80;68.50
54578;DHT22;40474;49.330;8.130;2022-08-01T01:20:17;23.80;68.70
54578;DHT22;40474;49.330;8.130;2022-08-01T01:25:32;23.70;69.80
54578;DHT22;40474;49.330;8.130;2022-08-01T01:30:32;23.70;70.30
54578;DHT22;40474;49.330;8.130;2022-08-01T01:33:02;23.70;70.20
54578;DHT22;40474;49.330;8.130;2022-08-01T01:35:31;23.60;70.30
54578;DHT22;40474;49.330;8.130;2022-08-01T01:38:00;23.60;71.10
54578;DHT22;40474;49.330;8.130;2022-08-01T01:40:28;23.50;70.80
54578;DHT22;40474;49.330;8.130;2022-08-01T01:42:56;23.50;70.80
54578;DHT22;40474;49.330;8.130;2022-08-01T01:45:25;23.50;71.60
54578;DHT22;40474;49.330;8.130;2022-08-01T01:47:55;23.50;71.80
54578;DHT22;40474;49.330;8.130;2022-08-01T01:50:23;23.50;72.10
54578;DHT22;40474;49.330;8.130;2022-08-01T01:52:50;23.50;72.40
54578;DHT22;40474;49.330;8.130;2022-08-01T01:55:19;23.40;71.20
54578;DHT22;40474;49.330;8.130;2022-08-01T01:57:47;23.50;72.00
54578;DHT22;40474;49.330;8.130;2022-08-01T02:00:14;23.30;71.70
54578;DHT22;40474;49.330;8.130;2022-08-01T02:02:41;23.30;73.70
54578;DHT22;40474;49.330;8.130;2022-08-01T02:05:10;23.20;72.80
54578;DHT22;40474;49.330;8.130;2022-08-01T02:07:38;23.20;74.20
54578;DHT22;40474;49.330;8.130;2022-08-01T02:10:06;23.00;75.10
54578;DHT22;40474;49.330;8.130;2022-08-01T02:12:34;22.90;74.90
54578;DHT22;40474;49.330;8.130;2022-08-01T02:15:03;22.80;75.10
54578;DHT22;40474;49.330;8.130;2022-08-01T02:17:30;22.70;76.30
54578;DHT22;40474;49.330;8.130;2022-08-01T02:20:00;22.60;76.00
54578;DHT22;40474;49.330;8.130;2022-08-01T02:22:44;22.60;76.30
54578;DHT22;40474;49.330;8.130;2022-08-01T02:25:36;22.50;77.10
54578;DHT22;40474;49.330;8.130;2022-08-01T02:28:02;22.40;76.50
54578;DHT22;40474;49.330;8.130;2022-08-01T02:30:31;22.30;78.10
54578;DHT22;40474;49.330;8.130;2022-08-01T02:33:03;22.20;78.30
54578;DHT22;40474;49.330;8.130;2022-08-01T02:35:33;22.20;78.10
54578;DHT22;40474;49.330;8.130;2022-08-01T02:38:22;22.00;80.10
54578;DHT22;40474;49.330;8.130;2022-08-01T02:40:50;21.90;79.70
54578;DHT22;40474;49.330;8.130;2022-08-01T02:43:18;21.90;81.10
54578;DHT22;40474;49.330;8.130;2022-08-01T02:45:47;21.80;81.40
54578;DHT22;40474;49.330;8.130;2022-08-01T02:48:15;21.70;81.50
54578;DHT22;40474;49.330;8.130;2022-08-01T02:50:44;21.60;80.90
54578;DHT22;40474;49.330;8.130;2022-08-01T02:53:12;21.50;83.40
54578;DHT22;40474;49.330;8.130;2022-08-01T02:55:39;21.50;83.70
54578;DHT22;40474;49.330;8.130;2022-08-01T02:58:07;21.40;83.50
54578;DHT22;40474;49.330;8.130;2022-08-01T03:00:38;21.40;82.80
54578;DHT22;40474;49.330;8.130;2022-08-01T03:03:06;21.40;84.30
54578;DHT22;40474;49.330;8.130;2022-08-01T03:05:34;21.30;85.10
54578;DHT22;40474;49.330;8.130;2022-08-01T03:08:01;21.20;85.70
54578;DHT22;40474;49.330;8.130;2022-08-01T03:10:29;21.20;84.90
54578;DHT22;40474;49.330;8.130;2022-08-01T03:12:57;21.20;85.40
54578;DHT22;40474;49.330;8.130;2022-08-01T03:15:26;21.20;85.60
54578;DHT22;40474;49.330;8.130;2022-08-01T03:17:53;21.20;84.80
54578;DHT22;40474;49.330;8.130;2022-08-01T03:20:21;21.20;86.10
54578;DHT22;40474;49.330;8.130;2022-08-01T03:22:51;21.10;86.20
54578;DHT22;40474;49.330;8.130;2022-08-01T03:25:19;21.10;85.60
54578;DHT22;40474;49.330;8.130;2022-08-01T03:27:54;21.10;85.80
54578;DHT22;40474;49.330;8.130;2022-08-01T03:30:25;21.10;86.80
54578;DHT22;40474;49.330;8.130;2022-08-01T03:32:55;21.10;86.10
54578;DHT22;40474;49.330;8.130;2022-08-01T03:35:23;21.20;85.90
54578;DHT22;40474;49.330;8.130;2022-08-01T03:37:53;21.10;87.40
54578;DHT22;40474;49.330;8.130;2022-08-01T03:40:49;21.10;88.10
54578;DHT22;40474;49.330;8.130;2022-08-01T03:43:26;21.00;86.90
54578;DHT22;40474;49.330;8.130;2022-08-01T03:45:54;21.00;88.20
54578;DHT22;40474;49.330;8.130;2022-08-01T03:48:26;21.00;87.10
54578;DHT22;40474;49.330;8.130;2022-08-01T03:50:54;21.00;87.60
54578;DHT22;40474;49.330;8.130;2022-08-01T03:53:22;21.00;87.20
54578;DHT22;40474;49.330;8.130;2022-08-01T03:55:50;21.00;88.40
54578;DHT22;40474;49.330;8.130;2022-08-01T03:58:17;21.00;89.00
54578;DHT22;40474;49.330;8.130;2022-08-01T04:00:44;21.00;88.00
54578;DHT22;40474;49.330;8.130;2022-08-01T04:03:13;21.00;88.00
54578;DHT22;40474;49.330;8.130;2022-08-01T04:05:41;21.00;88.60
54578;DHT22;40474;49.330;8.130;2022-08-01T04:08:08;21.00;88.30
54578;DHT22;40474;49.330;8.130;2022-08-01T04:10:35;20.90;89.10
54578;DHT22;40474;49.330;8.130;2022-08-01T04:13:02;20.90;89.40
54578;DHT22;40474;49.330;8.130;2022-08-01T04:15:29;20.90;88.00
54578;DHT22;40474;49.330;8.130;2022-08-01T04:17:56;21.00;88.30
54578;DHT22;40474;49.330;8.130;2022-08-01T04:20:23;21.00;88.50
54578;DHT22;40474;49.330;8.130;2022-08-01T04:22:50;21.00;88.30
54578;DHT22;40474;49.330;8.130;2022-08-01T04:25:23;21.00;88.60
54578;DHT22;40474;49.330;8.130;2022-08-01T04:27:52;21.00;88.90
54578;DHT22;40474;49.330;8.130;2022-08-01T04:30:24;21.00;89.10
54578;DHT22;40474;49.330;8.130;2022-08-01T04:32:52;20.90;89.70
54578;DHT22;40474;49.330;8.130;2022-08-01T04:35:22;20.90;89.70
54578;DHT22;40474;49.330;8.130;2022-08-01T04:38:14;20.80;90.20
54578;DHT22;40474;49.330;8.130;2022-08-01T04:40:44;20.80;90.30
54578;DHT22;40474;49.330;8.130;2022-08-01T04:43:12;20.80;90.20
54578;DHT22;40474;49.330;8.130;2022-08-01T04:45:42;20.90;89.70
54578;DHT22;40474;49.330;8.130;2022-08-01T04:48:10;20.90;90.10
54578;DHT22;40474;49.330;8.130;2022-08-01T04:50:37;20.90;90.20
54578;DHT22;40474;49.330;8.130;2022-08-01T04:53:04;21.00;90.10
54578;DHT22;40474;49.330;8.130;2022-08-01T04:55:31;21.00;89.80
54578;DHT22;40474;49.330;8.130;2022-08-01T04:57:58;21.10;89.50
54578;DHT22;40474;49.330;8.130;2022-08-01T05:00:25;21.20;88.50
54578;DHT22;40474;49.330;8.130;2022-08-01T05:02:52;21.40;88.60
54578;DHT22;40474;49.330;8.130;2022-08-01T05:05:19;21.50;88.00
54578;DHT22;40474;49.330;8.130;2022-08-01T05:07:47;21.70;87.70
54578;DHT22;40474;49.330;8.130;2022-08-01T05:10:15;21.90;87.40
54578;DHT22;40474;49.330;8.130;2022-08-01T05:12:41;22.00;86.70
54578;DHT22;40474;49.330;8.130;2022-08-01T05:15:08;22.10;86.50
54578;DHT22;40474;49.330;8.130;2022-08-01T05:17:41;22.20;85.60
54578;DHT22;40474;49.330;8.130;2022-08-01T05:20:11;22.40;85.20
54578;DHT22;40474;49.330;8.130;2022-08-01T05:22:38;22.50;84.20
54578;DHT22;40474;49.330;8.130;2022-08-01T05:25:05;22.60;83.40
54578;DHT22;40474;49.330;8.130;2022-08-01T05:27:32;22.70;83.50
54578;DHT22;40474;49.330;8.130;2022-08-01T05:29:59;22.80;83.20
54578;DHT22;40474;49.330;8.130;2022-08-01T05:32:26;23.00;82.50
54578;DHT22;40474;49.330;8.130;2022-08-01T05:34:53;23.10;81.70
54578;DHT22;40474;49.330;8.130;2022-08-01T05:37:20;23.30;82.00
54578;DHT22;40474;49.330;8.130;2022-08-01T05:39:46;23.50;81.10
54578;DHT22;40474;49.330;8.130;2022-08-01T05:42:13;23.50;80.40
54578;DHT22;40474;49.330;8.130;2022-08-01T05:44:40;23.80;80.20
54578;DHT22;40474;49.330;8.130;2022-08-01T05:47:08;24.20;78.70
54578;DHT22;40474;49.330;8.130;2022-08-01T05:49:34;25.10;75.60
54578;DHT22;40474;49.330;8.130;2022-08-01T05:52:02;25.80;72.80
54578;DHT22;40474;49.330;8.130;2022-08-01T05:54:29;26.60;69.80
54578;DHT22;40474;49.330;8.130;2022-08-01T05:56:56;27.50;67.90
54578;DHT22;40474;49.330;8.130;2022-08-01T05:59:26;28.50;63.60
54578;DHT22;40474;49.330;8.130;2022-08-01T06:01:52;29.00;60.40
54578;DHT22;40474;49.330;8.130;2022-08-01T06:04:19;28.40;61.10
54578;DHT22;40474;49.330;8.130;2022-08-01T06:06:46;27.90;61.50
54578;DHT22;40474;49.330;8.130;2022-08-01T06:09:13;27.60;63.10
54578;DHT22;40474;49.330;8.130;2022-08-01T06:11:43;27.30;62.80
54578;DHT22;40474;49.330;8.130;2022-08-01T06:14:09;27.00;64.20
54578;DHT22;40474;49.330;8.130;2022-08-01T06:16:37;26.40;65.10
54578;DHT22;40474;49.330;8.130;2022-08-01T06:19:04;26.10;67.20
54578;DHT22;40474;49.330;8.130;2022-08-01T06:21:32;26.70;67.20
54578;DHT22;40474;49.330;8.130;2022-08-01T06:23:58;27.90;63.60
54578;DHT22;40474;49.330;8.130;2022-08-01T06:26:26;27.70;62.00
54578;DHT22;40474;49.330;8.130;2022-08-01T06:28:53;27.20;63.00
54578;DHT22;40474;49.330;8.130;2022-08-01T06:31:19;26.70;64.40
54578;DHT22;40474;49.330;8.130;2022-08-01T06:33:46;26.20;65.70
54578;DHT22;40474;49.330;8.130;2022-08-01T06:36:13;26.10;66.80
54578;DHT22;40474;49.330;8.130;2022-08-01T06:38:39;27.10;64.60
54578;DHT22;40474;49.330;8.130;2022-08-01T06:41:06;27.20;63.20
54578;DHT22;40474;49.330;8.130;2022-08-01T06:43:33;27.20;63.30
54578;DHT22;40474;49.330;8.130;2022-08-01T06:46:00;27.50;64.20
54578;DHT22;40474;49.330;8.130;2022-08-01T06:48:26;28.10;61.70
54578;DHT22;40474;49.330;8.130;2022-08-01T06:50:53;27.80;61.30
54578;DHT22;40474;49.330;8.130;2022-08-01T06:53:37;27.40;62.80
54578;DHT22;40474;49.330;8.130;2022-08-01T06:56:05;27.40;62.90
54578;DHT22;40474;49.330;8.130;2022-08-01T06:58:32;27.50;62.90
54578;DHT22;40474;49.330;8.130;2022-08-01T07:01:01;27.70;61.80
54578;DHT22;40474;49.330;8.130;2022-08-01T07:03:30;28.00;62.10
54578;DHT22;40474;49.330;8.130;2022-08-01T07:06:17;28.10;60.80
54578;DHT22;40474;49.330;8.130;2022-08-01T07:08:44;27.80;60.90
54578;DHT22;40474;49.330;8.130;2022-08-01T07:11:10;27.90;61.10
54578;DHT22;40474;49.330;8.130;2022-08-01T07:13:37;27.90;61.00
54578;DHT22;40474;49.330;8.130;2022-08-01T07:16:14;28.00;61.70
54578;DHT22;40474;49.330;8.130;2022-08-01T07:18:41;28.50;61.00
54578;DHT22;40474;49.330;8.130;2022-08-01T07:21:08;30.00;56.90
54578;DHT22;40474;49.330;8.130;2022-08-01T07:23:54;31.30;53.40
54578;DHT22;40474;49.330;8.130;2022-08-01T07:26:22;32.00;50.70
54578;DHT22;40474;49.330;8.130;2022-08-01T07:28:48;33.50;47.90
54578;DHT22;40474;49.330;8.130;2022-08-01T07:31:15;34.30;46.20
54578;DHT22;40474;49.330;8.130;2022-08-01T07:33:42;35.10;43.60
54578;DHT22;40474;49.330;8.130;2022-08-01T07:36:17;34.90;43.90
54578;DHT22;40474;49.330;8.130;2022-08-01T07:38:44;35.30;42.90
54578;DHT22;40474;49.330;8.130;2022-08-01T07:41:11;36.00;42.20
54578;DHT22;40474;49.330;8.130;2022-08-01T07:43:37;36.50;41.30
54578;DHT22;40474;49.330;8.130;2022-08-01T07:46:04;36.10;40.30
54578;DHT22;40474;49.330;8.130;2022-08-01T07:48:31;35.90;41.60
54578;DHT22;40474;49.330;8.130;2022-08-01T07:50:58;36.10;41.00
54578;DHT22;40474;49.330;8.130;2022-08-01T07:53:26;36.00;40.50
54578;DHT22;40474;49.330;8.130;2022-08-01T07:55:53;36.20;40.30
54578;DHT22;40474;49.330;8.130;2022-08-01T07:58:19;36.90;39.00
54578;DHT22;40474;49.330;8.130;2022-08-01T08:00:46;37.40;37.90
54578;DHT22;40474;49.330;8.130;2022-08-01T08:03:13;38.30;38.00
54578;DHT22;40474;49.330;8.130;2022-08-01T08:05:39;37.70;37.10
54578;DHT22;40474;49.330;8.130;2022-08-01T08:08:25;37.40;37.70
54578;DHT22;40474;49.330;8.130;2022-08-01T08:10:51;35.90;39.30
54578;DHT22;40474;49.330;8.130;2022-08-01T08:13:19;35.70;40.20
54578;DHT22;40474;49.330;8.130;2022-08-01T08:15:46;35.70;40.60
54578;DHT22;40474;49.330;8.130;2022-08-01T08:18:14;35.00;41.60
54578;DHT22;40474;49.330;8.130;2022-08-01T08:20:41;34.60;40.80
54578;DHT22;40474;49.330;8.130;2022-08-01T08:23:07;35.20;42.20
54578;DHT22;40474;49.330;8.130;2022-08-01T08:26:12;35.60;40.60
54578;DHT22;40474;49.330;8.130;2022-08-01T08:28:38;36.50;38.20
54578;DHT22;40474;49.330;8.130;2022-08-01T08:31:06;35.40;39.40
54578;DHT22;40474;49.330;8.130;2022-08-01T08:33:51;34.00;41.50
54578;DHT22;40474;49.330;8.130;2022-08-01T08:36:20;32.60;43.60
54578;DHT22;40474;49.330;8.130;2022-08-01T08:38:46;31.90;44.20
54578;DHT22;40474;49.330;8.130;2022-08-01T08:41:13;31.10;46.10
54578;DHT22;40474;49.330;8.130;2022-08-01T08:43:46;30.70;47.80
54578;DHT22;40474;49.330;8.130;2022-08-01T08:46:14;30.30;47.60
54578;DHT22;40474;49.330;8.130;2022-08-01T08:48:41;30.10;49.10
54578;DHT22;40474;49.330;8.130;2022-08-01T08:51:09;29.80;49.00
54578;DHT22;40474;49.330;8.130;2022-08-01T08:53:38;29.40;49.70
54578;DHT22;40474;49.330;8.130;2022-08-01T08:56:07;28.90;50.90
54578;DHT22;40474;49.330;8.130;2022-08-01T08:58:34;28.70;51.90
54578;DHT22;40474;49.330;8.130;2022-08-01T09:01:05;28.80;51.10
54578;DHT22;40474;49.330;8.130;2022-08-01T09:03:32;28.60;52.00
54578;DHT22;40474;49.330;8.130;2022-08-01T09:05:59;28.20;53.30
54578;DHT22;40474;49.330;8.130;2022-08-01T09:08:26;28.20;53.30
54578;DHT22;40474;49.330;8.130;2022-08-01T09:10:55;28.20;54.60
54578;DHT22;40474;49.330;8.130;2022-08-01T09:13:22;28.10;54.20
54578;DHT22;40474;49.330;8.130;2022-08-01T09:15:49;27.90;54.70
54578;DHT22;40474;49.330;8.130;2022-08-01T09:23:40;27.30;57.40
54578;DHT22;40474;49.330;8.130;2022-08-01T09:26:21;27.20;58.00
54578;DHT22;40474;49.330;8.130;2022-08-01T09:28:49;27.10;58.40
54578;DHT22;40474;49.330;8.130;2022-08-01T09:31:17;27.10;58.40
54578;DHT22;40474;49.330;8.130;2022-08-01T09:33:58;27.00;59.40
54578;DHT22;40474;49.330;8.130;2022-08-01T09:36:25;27.00;59.70
54578;DHT22;40474;49.330;8.130;2022-08-01T09:38:53;26.90;59.80
54578;DHT22;40474;49.330;8.130;2022-08-01T09:41:28;26.80;60.00
54578;DHT22;40474;49.330;8.130;2022-08-01T09:44:05;26.80;60.90
54578;DHT22;40474;49.330;8.130;2022-08-01T09:46:34;26.70;61.40
54578;DHT22;40474;49.330;8.130;2022-08-01T09:49:02;26.50;61.70
54578;DHT22;40474;49.330;8.130;2022-08-01T09:51:36;26.50;62.40
54578;DHT22;40474;49.330;8.130;2022-08-01T09:54:33;26.30;62.60
54578;DHT22;40474;49.330;8.130;2022-08-01T09:57:13;26.50;61.90
54578;DHT22;40474;49.330;8.130;2022-08-01T09:59:41;26.60;62.10
54578;DHT22;40474;49.330;8.130;2022-08-01T10:02:31;26.80;60.90
54578;DHT22;40474;49.330;8.130;2022-08-01T10:05:01;26.90;61.40
54578;DHT22;40474;49.330;8.130;2022-08-01T10:10:24;27.10;60.70
54578;DHT22;40474;49.330;8.130;2022-08-01T10:12:57;27.30;60.10
54578;DHT22;40474;49.330;8.130;2022-08-01T10:15:25;27.40;61.30
54578;DHT22;40474;49.330;8.130;2022-08-01T10:18:04;27.90;59.80
54578;DHT22;40474;49.330;8.130;2022-08-01T10:20:42;28.00;58.40
54578;DHT22;40474;49.330;8.130;2022-08-01T10:23:10;28.10;58.20
54578;DHT22;40474;49.330;8.130;2022-08-01T10:25:40;28.50;58.10
54578;DHT22;40474;49.330;8.130;2022-08-01T10:28:16;29.30;56.70
54578;DHT22;40474;49.330;8.130;2022-08-01T10:30:49;29.80;54.70
54578;DHT22;40474;49.330;8.130;2022-08-01T10:33:22;30.00;53.10
54578;DHT22;40474;49.330;8.130;2022-08-01T10:36:09;30.00;52.90
54578;DHT22;40474;49.330;8.130;2022-08-01T10:38:36;30.50;52.30
54578;DHT22;40474;49.330;8.130;2022-08-01T10:41:05;31.00;51.40
54578;DHT22;40474;49.330;8.130;2022-08-01T10:43:34;31.60;49.50
54578;DHT22;40474;49.330;8.130;2022-08-01T10:46:03;31.20;48.70
54578;DHT22;40474;49.330;8.130;2022-08-01T10:48:42;30.40;50.00
54578;DHT22;40474;49.330;8.130;2022-08-01T10:51:11;29.60;51.50
54578;DHT22;40474;49.330;8.130;2022-08-01T10:53:48;29.30;52.90
54578;DHT22;40474;49.330;8.130;2022-08-01T10:56:21;29.10;53.00
54578;DHT22;40474;49.330;8.130;2022-08-01T10:59:00;29.00;52.80
54578;DHT22;40474;49.330;8.130;2022-08-01T11:01:32;29.00;53.40
54578;DHT22;40474;49.330;8.130;2022-08-01T11:04:08;29.00;53.10
54578;DHT22;40474;49.330;8.130;2022-08-01T11:06:44;29.20;52.10
54578;DHT22;40474;49.330;8.130;2022-08-01T11:11:58;30.50;51.50
54578;DHT22;40474;49.330;8.130;2022-08-01T11:14:26;31.20;49.30
54578;DHT22;40474;49.330;8.130;2022-08-01T11:25:20;35.00;45.00
54578;DHT22;40474;49.330;8.130;2022-08-01T11:41:39;32.90;42.80
54578;DHT22;40474;49.330;8.130;2022-08-01T11:44:07;32.40;44.30
54578;DHT22;40474;49.330;8.130;2022-08-01T11:46:50;32.50;43.60
54578;DHT22;40474;49.330;8.130;2022-08-01T11:49:25;33.40;43.70
54578;DHT22;40474;49.330;8.130;2022-08-01T11:52:14;34.10;42.00
54578;DHT22;40474;49.330;8.130;2022-08-01T11:54:46;34.30;41.50
54578;DHT22;40474;49.330;8.130;2022-08-01T11:57:20;33.60;42.60
54578;DHT22;40474;49.330;8.130;2022-08-01T11:59:49;33.30;42.70
54578;DHT22;40474;49.330;8.130;2022-08-01T12:02:31;33.10;43.00
54578;DHT22;40474;49.330;8.130;2022-08-01T12:05:03;33.20;43.70
54578;DHT22;40474;49.330;8.130;2022-08-01T12:07:31;32.90;43.50
54578;DHT22;40474;49.330;8.130;2022-08-01T12:09:59;32.70;44.00
54578;DHT22;40474;49.330;8.130;2022-08-01T12:12:28;32.50;44.30
54578;DHT22;40474;49.330;8.130;2022-08-01T12:14:57;32.30;44.90
54578;DHT22;40474;49.330;8.130;2022-08-01T12:17:37;32.10;44.80
54578;DHT22;40474;49.330;8.130;2022-08-01T12:20:05;32.00;44.40
54578;DHT22;40474;49.330;8.130;2022-08-01T12:22:33;32.00;45.20
54578;DHT22;40474;49.330;8.130;2022-08-01T12:25:13;32.40;44.20
54578;DHT22;40474;49.330;8.130;2022-08-01T12:27:40;32.70;43.50
54578;DHT22;40474;49.330;8.130;2022-08-01T12:30:09;32.30;44.00
54578;DHT22;40474;49.330;8.130;2022-08-01T12:32:37;32.20;43.80
54578;DHT22;40474;49.330;8.130;2022-08-01T12:35:08;32.50;43.80
54578;DHT22;40474;49.330;8.130;2022-08-01T12:37:39;32.40;43.60
54578;DHT22;40474;49.330;8.130;2022-08-01T12:40:13;32.30;44.20
54578;DHT22;40474;49.330;8.130;2022-08-01T12:42:40;32.10;44.20
54578;DHT22;40474;49.330;8.130;2022-08-01T12:45:08;31.70;43.10
54578;DHT22;40474;49.330;8.130;2022-08-01T12:47:38;31.60;45.60
54578;DHT22;40474;49.330;8.130;2022-08-01T12:50:06;31.20;43.40
54578;DHT22;40474;49.330;8.130;2022-08-01T12:52:34;31.60;43.90
54578;DHT22;40474;49.330;8.130;2022-08-01T12:57:28;32.80;41.50
54578;DHT22;40474;49.330;8.130;2022-08-01T13:00:05;32.90;42.90
54578;DHT22;40474;49.330;8.130;2022-08-01T13:02:32;32.70;41.80
54578;DHT22;40474;49.330;8.130;2022-08-01T13:04:59;32.50;42.00
54578;DHT22;40474;49.330;8.130;2022-08-01T13:10:11;32.30;43.50
54578;DHT22;40474;49.330;8.130;2022-08-01T13:12:38;32.80;43.60
54578;DHT22;40474;49.330;8.130;2022-08-01T13:15:18;32.50;41.70
54578;DHT22;40474;49.330;8.130;2022-08-01T13:17:45;32.30;44.40
54578;DHT22;40474;49.330;8.130;2022-08-01T13:20:23;31.90;43.70
54578;DHT22;40474;49.330;8.130;2022-08-01T13:23:09;31.80;43.40
54578;DHT22;40474;49.330;8.130;2022-08-01T13:25:47;31.60;44.30
54578;DHT22;40474;49.330;8.130;2022-08-01T13:28:33;31.30;43.70
54578;DHT22;40474;49.330;8.130;2022-08-01T13:31:04;31.20;44.80
54578;DHT22;40474;49.330;8.130;2022-08-01T13:33:42;30.90;45.40
54578;DHT22;40474;49.330;8.130;2022-08-01T13:36:10;30.50;45.90
54578;DHT22;40474;49.330;8.130;2022-08-01T13:38:39;30.10;46.80
54578;DHT22;40474;49.330;8.130;2022-08-01T13:41:25;29.80;47.50
54578;DHT22;40474;49.330;8.130;2022-08-01T13:43:53;29.70;47.60
54578;DHT22;40474;49.330;8.130;2022-08-01T13:46:24;29.80;47.80
54578;DHT22;40474;49.330;8.130;2022-08-01T13:48:55;29.90;46.80
54578;DHT22;40474;49.330;8.130;2022-08-01T13:51:22;30.20;47.20
54578;DHT22;40474;49.330;8.130;2022-08-01T13:53:49;30.30;47.60
54578;DHT22;40474;49.330;8.130;2022-08-01T13:56:16;30.30;47.10
54578;DHT22;40474;49.330;8.130;2022-08-01T13:58:44;30.30;48.10
54578;DHT22;40474;49.330;8.130;2022-08-01T14:01:11;30.20;47.00
54578;DHT22;40474;49.330;8.130;2022-08-01T14:03:39;30.10;47.30
54578;DHT22;40474;49.330;8.130;2022-08-01T14:06:06;29.80;48.30
54578;DHT22;40474;49.330;8.130;2022-08-01T14:08:33;29.70;48.60
54578;DHT22;40474;49.330;8.130;2022-08-01T14:11:00;29.50;49.40
54578;DHT22;40474;49.330;8.130;2022-08-01T14:13:33;29.50;48.70
54578;DHT22;40474;49.330;8.130;2022-08-01T14:16:13;29.50;49.10
54578;DHT22;40474;49.330;8.130;2022-08-01T14:18:42;29.60;48.60
54578;DHT22;40474;49.330;8.130;2022-08-01T14:21:11;29.80;49.60
54578;DHT22;40474;49.330;8.130;2022-08-01T14:23:48;29.80;48.00
54578;DHT22;40474;49.330;8.130;2022-08-01T14:26:16;29.90;48.50
54578;DHT22;40474;49.330;8.130;2022-08-01T14:28:46;30.00;47.60
54578;DHT22;40474;49.330;8.130;2022-08-01T14:31:20;30.00;49.20
54578;DHT22;40474;49.330;8.130;2022-08-01T14:33:52;29.80;48.70
54578;DHT22;40474;49.330;8.130;2022-08-01T14:36:24;29.70;49.10
54578;DHT22;40474;49.330;8.130;2022-08-01T14:38:57;29.40;48.70
54578;DHT22;40474;49.330;8.130;2022-08-01T14:41:27;29.20;49.50
54578;DHT22;40474;49.330;8.130;2022-08-01T14:43:57;29.20;49.70
54578;DHT22;40474;49.330;8.130;2022-08-01T14:46:23;29.10;50.70
54578;DHT22;40474;49.330;8.130;2022-08-01T14:49:24;29.00;49.60
54578;DHT22;40474;49.330;8.130;2022-08-01T14:51:50;29.00;50.50
54578;DHT22;40474;49.330;8.130;2022-08-01T14:54:20;28.90;50.50
54578;DHT22;40474;49.330;8.130;2022-08-01T14:56:55;28.80;51.40
54578;DHT22;40474;49.330;8.130;2022-08-01T14:59:21;28.90;50.80
54578;DHT22;40474;49.330;8.130;2022-08-01T15:01:48;29.00;50.00
54578;DHT22;40474;49.330;8.130;2022-08-01T15:04:16;29.00;50.60
54578;DHT22;40474;49.330;8.130;2022-08-01T15:06:44;28.90;50.60
54578;DHT22;40474;49.330;8.130;2022-08-01T15:09:11;28.80;51.80
54578;DHT22;40474;49.330;8.130;2022-08-01T15:11:37;28.80;51.80
54578;DHT22;40474;49.330;8.130;2022-08-01T15:14:04;28.80;51.70
54578;DHT22;40474;49.330;8.130;2022-08-01T15:16:49;28.90;50.20
54578;DHT22;40474;49.330;8.130;2022-08-01T15:19:16;28.90;51.00
54578;DHT22;40474;49.330;8.130;2022-08-01T15:21:43;28.70;51.10
54578;DHT22;40474;49.330;8.130;2022-08-01T15:24:10;28.70;51.00
54578;DHT22;40474;49.330;8.130;2022-08-01T15:26:37;28.70;51.20
54578;DHT22;40474;49.330;8.130;2022-08-01T15:29:04;28.60;51.20
54578;DHT22;40474;49.330;8.130;2022-08-01T15:31:31;28.50;51.80
54578;DHT22;40474;49.330;8.130;2022-08-01T15:33:59;28.50;51.40
54578;DHT22;40474;49.330;8.130;2022-08-01T15:36:29;28.60;52.30
54578;DHT22;40474;49.330;8.130;2022-08-01T15:38:58;28.60;52.30
54578;DHT22;40474;49.330;8.130;2022-08-01T15:41:25;28.50;52.00
54578;DHT22;40474;49.330;8.130;2022-08-01T15:43:52;28.50;52.30
54578;DHT22;40474;49.330;8.130;2022-08-01T15:46:21;28.30;52.50
54578;DHT22;40474;49.330;8.130;2022-08-01T15:48:49;28.30;52.60
54578;DHT22;40474;49.330;8.130;2022-08-01T15:51:16;28.40;52.40
54578;DHT22;40474;49.330;8.130;2022-08-01T15:56:16;28.10;53.50
54578;DHT22;40474;49.330;8.130;2022-08-01T15:58:43;28.10;53.60
54578;DHT22;40474;49.330;8.130;2022-08-01T16:01:10;27.90;53.40
54578;DHT22;40474;49.330;8.130;2022-08-01T16:03:36;27.90;52.80
54578;DHT22;40474;49.330;8.130;2022-08-01T16:06:03;27.90;53.30
54578;DHT22;40474;49.330;8.130;2022-08-01T16:08:30;27.80;54.10
54578;DHT22;40474;49.330;8.130;2022-08-01T16:10:57;27.70;54.30
54578;DHT22;40474;49.330;8.130;2022-08-01T16:13:23;27.70;53.90
54578;DHT22;40474;49.330;8.130;2022-08-01T16:15:51;27.70;54.80
54578;DHT22;40474;49.330;8.130;2022-08-01T16:18:18;27.60;54.20
54578;DHT22;40474;49.330;8.130;2022-08-01T16:20:47;27.60;54.00
54578;DHT22;40474;49.330;8.130;2022-08-01T16:23:14;27.60;54.80
54578;DHT22;40474;49.330;8.130;2022-08-01T16:25:42;27.70;54.10
54578;DHT22;40474;49.330;8.130;2022-08-01T16:28:10;27.60;54.20
54578;DHT22;40474;49.330;8.130;2022-08-01T16:30:38;27.60;54.70
54578;DHT22;40474;49.330;8.130;2022-08-01T16:33:33;27.50;54.50
54578;DHT22;40474;49.330;8.130;2022-08-01T16:36:21;27.40;55.40
54578;DHT22;40474;49.330;8.130;2022-08-01T16:39:02;27.30;54.00
54578;DHT22;40474;49.330;8.130;2022-08-01T16:41:37;27.40;54.60